Latest Weather Observations for Cooma Airport

IDN60801

Issued at 3:03 am EDT Saturday 21 January 2017 (issued every 30 minutes, with the page automatically refreshed every 10 minutes)

About weather observations | Map of weather stations | Latest weather observations for NSW | Other Formats
Station Details ID: 070217 Name: COOMA AIRPORT AWS Lat: -36.29 Lon: 148.97 Height: 930.0 m
Data from the previous 72 hours. | See also: Recent months at Cooma Airport
Date/Time
EDT
Temp
°C
App
Temp
°C
Dew
Point
°C
Rel
Hum
%
Delta-T
°C
Wind Press
QNH
hPa
Press
MSL
hPa
Rain since
9am
mm
Dir  Spd
km/h
Gust
km/h
Spd
kts
Gust
kts
21/03:00am 8.5 3.7 4.9 78 1.7 WSW 19 22 10 12 1008.3 1003.9 0.0
21/02:30am 8.4 4.8 4.8 78 1.7 SW 13 19 7 10 1008.2 1003.8 0.0
21/02:00am 8.9 4.9 4.9 76 1.9 SW 15 20 8 11 1008.0 1003.6 0.0
21/01:30am 10.2 5.3 5.2 71 2.4 SW 20 28 11 15 1008.0 1003.6 0.0
21/01:00am 10.1 7.0 5.5 73 2.2 SW 11 17 6 9 1008.1 1003.7 0.0
21/12:30am 10.4 4.8 5.6 72 2.3 SW 24 35 13 19 1007.4 1002.9 0.0
21/12:00am 10.7 3.9 5.3 69 2.6 SW 30 37 16 20 1006.7 1002.2 0.0
 
Date/Time
EDT
Temp
°C
App
Temp
°C
Dew
Point
°C
Rel
Hum
%
Delta-T
°C
Wind Press
QNH
hPa
Press
MSL
hPa
Rain since
9am
mm
Dir  Spd
km/h
Gust
km/h
Spd
kts
Gust
kts
20/11:30pm 11.3 4.9 5.0 65 3.0 SW 28 35 15 19 1006.7 1002.2 0.0
20/11:00pm 11.6 5.5 5.0 64 3.2 SW 26 32 14 17 1006.7 1002.2 0.0
20/10:30pm 11.9 4.8 5.3 64 3.2 SSW 32 43 17 23 1006.3 1001.8 0.0
20/10:06pm 12.6 4.5 5.3 61 3.6 SSW 37 56 20 30 1006.0 1001.6 0.0
20/10:00pm 12.7 4.3 5.6 62 3.5 SSW 39 56 21 30 1005.6 1001.1 0.0
20/09:57pm 12.7 4.7 5.6 62 3.5 SSW 37 56 20 30 1005.4 1000.9 0.0
20/09:30pm 13.1 4.0 6.0 62 3.5 SSW 43 54 23 29 1004.6 1000.1 0.0
20/09:00pm 13.9 4.3 6.3 60 3.9 SSW 46 54 25 29 1004.0 999.5 0.0
20/08:30pm 14.8 6.3 6.9 59 4.1 SSW 41 52 22 28 1003.0 998.5 0.0
20/08:00pm 16.4 7.3 8.6 60 4.2 S 46 57 25 31 1001.8 997.2 0.0
20/07:30pm 18.7 11.0 10.3 58 4.7 S 41 52 22 28 1000.6 996.0 0.0
20/07:00pm 21.0 14.3 12.4 58 5.1 S 39 54 21 29 999.0 994.5 0.0
20/06:30pm 23.3 16.8 12.9 52 6.2 SSW 39 50 21 27 997.8 993.2 0.0
20/06:15pm 23.6 17.9 12.9 51 6.4 SW 35 46 19 25 997.5 992.9 0.0
20/06:00pm 25.1 17.6 9.4 37 9.0 SW 39 56 21 30 997.3 992.7 0.0
20/05:30pm 26.0 17.6 8.9 34 9.7 SW 43 59 23 32 996.8 992.2 0.0
20/05:06pm 27.3 18.0 7.7 29 11.0 SW 46 69 25 37 996.2 991.6 0.0
20/05:00pm 27.1 18.4 8.5 31 10.6 SW 44 59 24 32 996.2 991.6 0.0
20/04:55pm 26.9 19.8 9.7 34 9.9 WSW 37 57 20 31 996.1 991.4 0.0
20/04:38pm 27.0 19.8 10.7 36 9.6 W 39 57 21 31 996.3 991.7 0.0
20/04:30pm 26.9 18.9 10.6 36 9.6 WSW 43 56 23 30 996.3 991.7 0.0
20/04:00pm 26.2 19.6 13.7 46 7.7 WSW 41 59 22 32 996.3 991.7 0.0
20/03:30pm 24.5 17.5 14.3 53 6.3 WSW 44 67 24 36 996.5 991.9 0.0
20/03:18pm 24.2 19.5 14.9 56 5.8 WSW 33 54 18 29 996.0 991.3 0.0
20/03:00pm 24.5 18.7 14.9 55 6.0 WSW 39 54 21 29 995.7 991.1 0.0
20/02:35pm 26.0 22.8 16.3 55 6.2 WSW 28 50 15 27 995.5 990.9 0.0
20/02:30pm 25.5 21.8 16.1 56 6.0 SW 30 41 16 22 995.4 990.8 0.0
20/02:00pm 25.1 22.3 16.3 58 5.6 W 26 41 14 22 995.5 990.9 0.0
20/01:41pm 25.8 23.0 17.2 59 5.6 W 28 46 15 25 995.3 990.7 0.0
20/01:30pm 25.8 22.3 17.4 59 5.4 WNW 32 48 17 26 995.2 990.6 0.0
20/01:00pm 24.5 18.6 16.7 61 5.0 WNW 43 72 23 39 995.3 990.7 0.0
20/12:51pm 26.1 20.9 16.6 55 6.1 WNW 39 72 21 39 995.1 990.4 0.0
20/12:42pm 25.4 22.8 17.8 62 5.0 W 28 46 15 25 995.1 990.4 0.0
20/12:30pm 24.1 22.3 16.9 64 4.6 WNW 22 35 12 19 995.6 991.0 0.0
20/12:00pm 23.4 19.3 16.4 64 4.5 WNW 33 57 18 31 995.9 991.2 0.0
20/11:30am 22.8 18.5 17.0 70 3.7 NW 35 56 19 30 995.5 990.9 0.0
20/11:07am 21.7 18.5 16.2 71 3.5 WNW 28 52 15 28 996.7 992.1 0.0
20/11:00am 21.5 18.8 15.6 69 3.7 NW 24 37 13 20 997.2 992.6 0.0
20/10:30am 20.6 18.8 16.0 75 2.9 NW 20 37 11 20 997.3 992.7 0.0
20/10:00am 20.3 17.9 16.5 79 2.4 NNW 24 44 13 24 998.2 993.6 0.0
20/09:30am 18.2 17.5 17.4 95 0.5 NNE 17 24 9 13 999.1 994.6 0.0
20/09:00am 15.3 13.4 15.1 99 0.1 NNE 19 24 10 13 1000.0 995.5 1.2
20/08:30am 14.9 14.3 14.7 99 0.1 NE 11 15 6 8 1000.7 996.1 1.2
20/08:00am 14.3 11.8 14.0 98 0.2 NE 20 24 11 13 1001.3 996.8 0.8
20/07:53am 14.5 13.0 14.2 98 0.2 NE 15 20 8 11 1001.2 996.7 0.6
20/07:36am 14.6 12.8 13.3 92 0.8 NE 15 20 8 11 1001.4 996.9 0.2
20/07:30am 14.9 12.2 12.8 87 1.2 NE 19 24 10 13 1001.4 996.9 0.0
20/07:00am 14.7 11.6 12.2 85 1.4 NE 20 30 11 16 1001.6 997.0 0.0
20/06:30am 13.9 11.0 12.3 90 0.9 ENE 19 24 10 13 1001.7 997.1 0.0
20/06:00am 13.7 10.8 12.3 91 0.8 NNE 19 24 10 13 1003.2 998.7 0.0
20/05:30am 13.6 9.3 12.0 90 0.9 NE 26 32 14 17 1002.1 997.6 0.0
20/05:00am 13.6 9.6 11.8 89 1.0 NE 24 32 13 17 1002.5 998.0 0.0
20/04:30am 13.7 9.3 11.8 88 1.1 NE 26 33 14 18 1003.0 998.5 0.0
20/04:00am 13.8 9.0 11.8 88 1.1 NE 28 33 15 18 1004.0 999.5 0.0
20/03:30am 13.9 9.1 11.8 87 1.2 NE 28 33 15 18 1004.5 1000.0 0.0
20/03:00am 13.8 9.8 11.7 87 1.2 NE 24 35 13 19 1005.3 1000.8 0.0
20/02:30am 13.6 9.6 11.7 88 1.1 NE 24 32 13 17 1005.7 1001.2 0.0
20/02:00am 13.3 9.3 11.7 90 0.9 NNE 24 32 13 17 1006.3 1001.8 0.0
20/01:30am 13.0 8.9 11.4 90 0.9 NE 24 30 13 16 1007.0 1002.6 0.0
20/01:00am 13.0 9.3 11.4 90 0.9 NE 22 28 12 15 1007.5 1003.0 0.0
20/12:30am 13.0 9.3 11.6 91 0.8 NNE 22 32 12 17 1007.9 1003.5 0.0
20/12:00am 13.0 8.9 11.6 91 0.8 NE 24 30 13 16 1008.9 1004.5 0.0
 
Date/Time
EDT
Temp
°C
App
Temp
°C
Dew
Point
°C
Rel
Hum
%
Delta-T
°C
Wind Press
QNH
hPa
Press
MSL
hPa
Rain since
9am
mm
Dir  Spd
km/h
Gust
km/h
Spd
kts
Gust
kts
19/11:30pm 13.1 9.3 11.3 89 1.0 NE 22 28 12 15 1009.4 1005.0 0.0
19/11:00pm 13.3 9.5 11.2 87 1.2 NE 22 28 12 15 1009.8 1005.4 0.0
19/10:30pm 13.6 10.2 11.3 86 1.3 NE 20 26 11 14 1010.1 1005.7 0.0
19/10:00pm 13.4 9.3 11.3 87 1.2 NE 24 30 13 16 1010.3 1005.9 0.0
19/09:30pm 13.4 8.8 11.1 86 1.3 NE 26 33 14 18 1010.6 1006.3 0.0
19/09:00pm 14.0 9.0 11.0 82 1.7 ENE 28 33 15 18 1010.6 1006.3 0.0
19/08:30pm 14.7 9.7 10.9 78 2.1 ENE 28 37 15 20 1010.5 1006.1 0.0
19/08:00pm 15.8 10.0 10.8 72 2.8 ENE 32 43 17 23 1010.6 1006.3 0.0
19/07:30pm 16.8 10.8 10.9 68 3.3 ENE 33 41 18 22 1010.6 1006.3 0.0
19/07:00pm 17.6 10.9 10.9 65 3.8 ENE 37 46 20 25 1010.6 1006.3 0.0
19/06:30pm 18.7 11.9 10.8 60 4.5 ENE 37 50 20 27 1010.5 1006.1 0.0
19/06:00pm 19.6 12.6 11.1 58 4.9 ENE 39 50 21 27 1010.6 1006.3 0.0
19/05:30pm 20.4 14.0 10.8 54 5.5 ENE 35 46 19 25 1011.0 1006.6 0.0
19/05:17pm 20.8 14.5 10.9 53 5.7 ENE 35 54 19 29 1011.0 1006.6 0.0
19/05:00pm 21.5 15.3 11.5 53 5.8 ENE 35 44 19 24 1011.2 1006.8 0.0
19/04:30pm 21.6 15.3 11.0 51 6.1 ENE 35 46 19 25 1011.4 1007.0 0.0
19/04:00pm 22.4 16.4 10.9 48 6.6 ENE 33 43 18 23 1011.6 1007.3 0.0
19/03:30pm 23.7 19.1 11.1 45 7.3 NE 26 37 14 20 1012.0 1007.6 0.0
19/03:10pm 24.0 19.3 12.0 47 7.1 NE 28 48 15 26 1012.3 1007.9 0.0
19/03:00pm 22.9 18.7 11.0 47 6.9 NE 24 41 13 22 1012.3 1007.9 0.0
19/02:30pm 22.3 18.4 10.8 48 6.6 NNE 22 32 12 17 1012.7 1008.4 0.0
19/02:00pm 22.3 18.8 12.3 53 5.9 NE 22 33 12 18 1013.2 1008.8 0.0
19/01:30pm 21.3 17.1 11.1 52 5.9 NNE 24 32 13 17 1013.5 1009.1 0.0
19/01:00pm 20.3 15.7 11.2 56 5.2 NE 26 37 14 20 1013.9 1009.6 0.0
19/12:30pm 19.4 14.2 10.4 56 5.1 NNE 28 41 15 22 1014.5 1010.1 0.0
19/12:00pm 19.2 14.3 11.3 60 4.5 NNE 28 37 15 20 1014.8 1010.5 0.0
19/11:36am 17.8 12.6 10.4 62 4.1 NE 28 46 15 25 1015.0 1010.7 0.0
19/11:30am 17.9 12.7 10.3 61 4.2 NE 28 37 15 20 1015.1 1010.8 0.0
19/11:00am 17.0 11.8 10.4 65 3.7 NNE 28 39 15 21 1015.5 1011.2 0.0
19/10:30am 16.2 10.6 10.3 68 3.3 NNE 30 39 16 21 1015.7 1011.4 0.0
19/10:02am 15.0 9.6 9.6 70 2.9 NNE 28 35 15 19 1015.8 1011.5 0.0
19/10:00am 15.2 9.9 9.8 70 2.9 NNE 28 35 15 19 1015.8 1011.5 0.0
19/09:30am 14.1 9.6 9.9 76 2.3 NNE 24 32 13 17 1016.1 1011.8 0.0
19/09:00am 13.0 9.0 10.4 84 1.4 NNE 22 30 12 16 1016.3 1012.0 0.0
19/08:30am 11.8 8.8 10.5 92 0.7 NNE 17 24 9 13 1016.5 1012.3 0.0
19/08:20am 11.5 9.3 10.7 95 0.4 NNE 13 17 7 9 1016.7 1012.4 0.0
19/08:00am 10.9 8.6 10.6 98 0.2 ENE 13 15 7 8 1016.7 1012.4 0.0
19/07:30am 10.5 8.5 10.0 97 0.3 ENE 11 13 6 7 1016.4 1012.2 0.0
19/07:06am 10.7 10.3 9.6 93 0.6 W 2 9 1 5 1016.3 1012.0 0.0
19/07:00am 10.5 10.0 7.9 84 1.3 CALM 0 0 0 0 1016.3 1012.0 0.0
19/06:30am 10.4 9.8 7.3 81 1.6 CALM 0 0 0 0 1016.1 1011.8 0.0
19/06:00am 10.3 8.4 6.5 77 1.9 SSW 6 7 3 4 1015.8 1011.5 0.0
19/05:30am 10.3 8.2 6.5 77 1.9 SW 7 9 4 5 1015.8 1011.5 0.0
19/05:13am 10.3 8.2 6.5 77 1.9 SW 7 9 4 5 1015.6 1011.3 0.0
19/05:00am 10.3 8.2 6.5 77 1.9 SW 7 9 4 5 1015.6 1011.3 0.0
19/04:30am 10.4 8.2 6.4 76 2.0 SSW 7 9 4 5 1015.7 1011.4 0.0
19/04:00am 10.5 8.4 6.5 76 2.0 S 7 11 4 6 1015.8 1011.5 0.0
19/03:30am 10.5 8.0 6.5 76 2.0 SSW 9 11 5 6 1016.0 1011.7 0.0
19/03:00am 10.7 8.2 6.6 76 2.0 SSE 9 11 5 6 1016.3 1012.0 0.0
19/02:30am 10.9 8.5 6.8 76 2.0 SSE 9 13 5 7 1016.7 1012.4 0.0
19/02:00am 11.1 8.7 7.0 76 2.1 SSE 9 15 5 8 1017.1 1012.8 0.0
19/01:30am 11.4 9.0 7.1 75 2.2 SE 9 11 5 6 1017.2 1012.9 0.0
19/01:00am 11.8 9.5 7.5 75 2.2 SE 9 11 5 6 1017.5 1013.3 0.0
19/12:30am 12.1 9.5 7.8 75 2.2 SSE 11 15 6 8 1017.6 1013.4 0.0
19/12:00am 12.2 10.0 7.7 74 2.3 ESE 9 13 5 7 1017.6 1013.4 0.0
 
Date/Time
EDT
Temp
°C
App
Temp
°C
Dew
Point
°C
Rel
Hum
%
Delta-T
°C
Wind Press
QNH
hPa
Press
MSL
hPa
Rain since
9am
mm
Dir  Spd
km/h
Gust
km/h
Spd
kts
Gust
kts
18/11:30pm 12.8 9.9 8.1 73 2.4 SSE 13 17 7 9 1017.5 1013.3 0.0
18/11:00pm 12.6 10.1 8.3 75 2.2 SSE 11 15 6 8 1017.4 1013.2 0.0
18/10:30pm 12.6 9.0 8.5 76 2.1 SSE 17 22 9 12 1017.1 1012.8 0.0
18/10:00pm 12.4 8.8 8.3 76 2.1 S 17 22 9 12 1016.9 1012.6 0.0
18/09:30pm 12.6 9.0 8.5 76 2.1 S 17 20 9 11 1016.9 1012.6 0.0
18/09:00pm 13.0 9.8 8.5 74 2.4 SSW 15 17 8 9 1016.4 1012.2 0.0
18/08:30pm 14.3 10.8 8.9 70 2.9 SSW 17 20 9 11 1015.8 1011.5 0.0
18/08:00pm 15.4 10.3 9.3 67 3.3 SSW 26 33 14 18 1014.9 1010.6 0.0
18/07:30pm 16.4 10.3 9.6 64 3.7 SSW 32 41 17 22 1014.2 1009.9 0.0
18/07:00pm 17.3 10.6 9.7 61 4.2 SSW 35 44 19 24 1013.7 1009.4 0.0
18/06:30pm 18.3 12.2 9.9 58 4.7 S 32 43 17 23 1013.0 1008.7 0.0
18/06:00pm 20.6 15.1 10.4 52 5.8 S 30 39 16 21 1012.5 1008.1 0.0
18/05:30pm 21.5 15.2 10.9 51 6.1 S 35 44 19 24 1012.4 1008.0 0.0
18/05:00pm 23.3 17.7 11.4 47 7.0 S 32 43 17 23 1012.0 1007.6 0.0
18/04:30pm 25.5 21.1 10.5 39 8.7 SW 24 37 13 20 1011.6 1007.3 0.0
18/04:15pm 25.0 19.3 8.5 35 9.3 SSW 28 54 15 29 1011.3 1006.9 0.0
18/04:00pm 25.5 20.9 9.7 37 9.1 SW 24 46 13 25 1011.5 1007.1 0.0
18/03:53pm 26.7 21.8 8.6 32 10.3 SW 24 46 13 25 1011.4 1007.0 0.0
18/03:30pm 24.1 20.2 10.7 43 7.8 SSW 22 30 12 16 1011.5 1007.1 0.0
18/03:00pm 24.0 20.2 11.0 44 7.6 SSW 22 35 12 19 1011.4 1007.0 0.0
18/02:30pm 23.6 19.2 10.3 43 7.6 SSW 24 33 13 18 1011.7 1007.4 0.0
18/02:00pm 25.0 20.2 8.9 36 9.1 SSW 24 35 13 19 1011.6 1007.3 0.0
18/01:30pm 25.2 20.4 8.7 35 9.3 SSW 24 32 13 17 1011.7 1007.4 0.0
18/01:00pm 25.8 21.6 7.4 31 10.2 SW 19 28 10 15 1011.3 1006.9 0.0
18/12:30pm 25.2 22.1 8.7 35 9.3 SSW 15 24 8 13 1011.6 1007.3 0.0
18/12:00pm 25.4 22.3 8.8 35 9.4 S 15 22 8 12 1011.4 1007.0 0.0
18/11:30am 25.1 20.0 7.7 33 9.6 S 24 30 13 16 1011.6 1007.3 0.0
18/11:00am 26.4 21.9 6.9 29 10.7 S 20 28 11 15 1011.3 1006.9 0.0
18/10:30am 27.0 24.1 6.4 27 11.3 E 11 20 6 11 1010.7 1006.4 0.0
18/10:00am 24.9 21.7 8.4 35 9.3 NE 15 20 8 11 1010.4 1006.0 0.0
18/09:30am 22.5 19.7 7.1 37 8.3 NNE 11 15 6 8 1010.4 1006.0 0.0
18/09:00am 21.5 19.7 7.0 39 7.8 ESE 6 11 3 6 1011.0 1006.6 0.0
18/08:30am 20.1 18.3 7.8 45 6.6 N 7 15 4 8 1010.9 1006.5 0.0
18/08:00am 19.0 16.8 7.8 48 6.0 SW 9 15 5 8 1011.3 1006.9 0.0
18/07:30am 18.0 14.9 7.4 50 5.6 SW 13 17 7 9 1011.3 1006.9 0.0
18/07:00am 15.0 13.5 8.5 65 3.5 SW 6 11 3 6 1011.5 1007.1 0.0
18/06:30am 13.0 10.0 7.5 69 2.8 SW 13 20 7 11 1011.6 1007.3 0.0
18/06:00am 10.5 7.3 6.8 78 1.8 WSW 13 15 7 8 1011.1 1006.7 0.0
18/05:30am 11.8 9.0 7.1 73 2.4 SW 11 17 6 9 1011.1 1006.7 0.0
18/05:00am 13.3 12.5 8.0 70 2.8 - 2 9 1 5 1010.5 1006.1 0.0
18/04:30am 15.1 10.6 8.6 65 3.5 SW 22 26 12 14 1010.3 1005.9 0.0
18/04:00am 15.1 10.7 10.3 73 2.6 SW 24 28 13 15 1010.1 1005.7 0.0
18/03:30am 13.4 12.3 9.8 79 1.9 NW 6 30 3 16 1009.9 1005.5 0.0

Other Formats:

Comma delimited format used in spreadsheet applications
http://www.bom.gov.au/fwo/IDN60801/IDN60801.94921.axf

JavaScript Object Notation format (JSON) in row-major order
http://www.bom.gov.au/fwo/IDN60801/IDN60801.94921.json